Latest Weather Observations for Canterbury

IDN60801

Issued at 7:32 pm EST Wednesday 27 May 2015 (issued every 30 minutes, with the page automatically refreshed every 10 minutes)

About weather observations | Map of weather stations | Latest weather observations for NSW | Other Formats
Station Details ID: 066194 Name: CANTERBURY RACECOURSE AWS Lat: -33.91 Lon: 151.11 Height: 3.0 m
Data from the previous 72 hours. | See also: Recent months at Canterbury
Date/Time
EST
Temp
°C
App
Temp
°C
Dew
Point
Rel
Hum
%
Delta-T
°C
Wind Press
QNH
hPa
Press
MSL
hPa
Rain
since 9 am
mm
Dir
 
Spd
km/h
Gust
km/h
Spd
kts
Gust
kts
27/07:30pm 10.6 10.1 8.0 84 1.3 CALM 0 0 0 0 - - 0.0
27/07:00pm 11.0 10.4 7.5 79 1.7 CALM 0 0 0 0 - - 0.0
27/06:30pm 12.1 11.5 7.4 73 2.3 CALM 0 0 0 0 - - 0.0
27/06:00pm 13.0 12.4 7.2 68 2.8 CALM 0 0 0 0 - - 0.0
27/05:30pm 14.9 12.9 7.2 60 3.8 NNW 7 11 4 6 - - 0.0
27/05:00pm 16.2 14.2 6.9 54 4.6 NNW 7 9 4 5 - - 0.0
27/04:30pm 17.4 15.1 7.5 52 5.0 NNW 9 13 5 7 - - 0.0
27/04:00pm 18.3 16.4 7.4 49 5.5 NW 7 11 4 6 - - 0.0
27/03:30pm 18.6 16.1 6.4 45 6.1 WNW 9 15 5 8 - - 0.0
27/03:00pm 19.4 16.4 5.8 41 6.7 WNW 11 15 6 8 - - 0.0
27/02:30pm 19.9 16.7 7.0 43 6.5 WNW 13 20 7 11 - - 0.0
27/02:00pm 19.6 16.9 5.6 40 6.9 NW 9 17 5 9 - - 0.0
27/01:30pm 19.4 16.8 6.2 42 6.6 NNW 9 17 5 9 - - 0.0
27/01:00pm 18.9 16.2 5.7 42 6.5 NNW 9 15 5 8 - - 0.0
27/12:30pm 18.3 15.8 6.5 46 5.9 NNW 9 17 5 9 - - 0.0
27/12:00pm 17.3 14.9 6.8 50 5.2 WNW 9 13 5 7 - - 0.0
27/11:30am 16.4 13.6 7.1 54 4.6 WNW 11 15 6 8 - - 0.0
27/11:00am 16.1 13.2 6.5 53 4.7 WNW 11 20 6 11 - - 0.0
27/10:30am 15.4 13.2 7.7 60 3.8 NW 9 13 5 7 - - 0.0
27/10:00am 14.5 12.2 7.3 62 3.5 WNW 9 15 5 8 - - 0.0
27/09:30am 13.9 11.5 7.2 64 3.3 WNW 9 11 5 6 - - 0.0
27/09:00am 12.4 9.6 6.9 69 2.6 W 11 17 6 9 - - 0.2
27/08:30am 11.6 8.8 6.9 73 2.2 W 11 17 6 9 - - 0.2
27/08:00am 10.3 8.0 7.4 82 1.4 WNW 9 15 5 8 - - 0.2
27/07:30am 8.7 7.1 8.1 96 0.3 NW 6 7 3 4 - - 0.2
27/07:00am 7.2 6.4 6.5 95 0.3 CALM 0 0 0 0 - - 0.2
27/06:30am 7.3 6.5 6.4 94 0.4 CALM 0 0 0 0 - - 0.2
27/06:00am 7.8 7.0 6.4 91 0.6 CALM 0 0 0 0 - - 0.2
27/05:30am 8.7 7.7 7.5 92 0.6 NW 2 6 1 3 - - 0.2
27/05:00am 8.8 8.2 7.4 91 0.7 CALM 0 0 0 0 - - 0.2
27/04:30am 9.0 8.4 7.5 90 0.7 CALM 0 0 0 0 - - 0.2
27/04:00am 9.1 7.8 7.5 90 0.8 NW 4 7 2 4 - - 0.2
27/03:30am 8.8 7.7 6.8 87 0.9 NW 2 6 1 3 - - 0.2
27/03:00am 9.7 9.1 7.5 86 1.0 CALM 0 6 0 3 - - 0.2
27/02:30am 10.0 8.3 7.4 84 1.2 NW 6 9 3 5 - - 0.2
27/02:00am 10.3 9.9 8.1 86 1.1 CALM 0 7 0 4 - - 0.2
27/01:30am 10.2 9.4 8.0 86 1.1 W 2 6 1 3 - - 0.2
27/01:00am 10.2 8.7 8.6 90 0.8 NW 6 7 3 4 - - 0.2
27/12:30am 10.3 9.3 8.7 90 0.8 NW 4 6 2 3 - - 0.2
27/12:00am 10.0 9.3 8.6 91 0.7 NW 2 6 1 3 - - 0.2
 
Date/Time
EST
Temp
°C
App
Temp
°C
Dew
Point
Rel
Hum
%
Delta-T
°C
Wind Press
QNH
hPa
Press
MSL
hPa
Rain
since 9 am
mm
Dir
 
Spd
km/h
Gust
km/h
Spd
kts
Gust
kts
26/11:30pm 10.0 8.6 8.9 93 0.5 NW 6 9 3 5 - - 0.2
26/11:00pm 9.4 8.9 8.0 91 0.7 CALM 0 0 0 0 - - 0.2
26/10:30pm 10.5 10.0 9.4 93 0.5 WNW 2 6 1 3 - - 0.2
26/10:00pm 9.6 9.3 8.7 94 0.4 CALM 0 0 0 0 - - 0.2
26/09:30pm 9.8 9.5 8.7 93 0.5 CALM 0 0 0 0 - - 0.2
26/09:00pm 10.0 9.8 8.9 93 0.5 CALM 0 0 0 0 - - 0.2
26/08:30pm 10.0 9.8 8.9 93 0.5 CALM 0 0 0 0 - - 0.2
26/08:00pm 9.8 9.4 8.1 89 0.8 CALM 0 0 0 0 - - 0.2
26/07:30pm 10.6 10.5 9.5 93 0.6 CALM 0 0 0 0 - - 0.2
26/07:00pm 10.9 10.8 9.5 91 0.7 CALM 0 0 0 0 - - 0.2
26/06:30pm 10.9 10.8 9.5 91 0.7 CALM 0 0 0 0 - - 0.2
26/06:00pm 10.8 10.6 9.1 89 0.8 CALM 0 0 0 0 - - 0.2
26/05:30pm 11.6 11.3 8.6 82 1.5 CALM 0 0 0 0 - - 0.2
26/05:00pm 13.4 13.3 9.3 76 2.1 CALM 0 0 0 0 - - 0.2
26/04:30pm 15.2 15.0 9.1 67 3.1 CALM 0 6 0 3 - - 0.2
26/04:00pm 15.9 14.7 9.6 66 3.3 SE 6 9 3 5 - - 0.2
26/03:30pm 16.2 14.6 8.7 61 3.8 SSE 7 9 4 5 - - 0.2
26/03:00pm 16.5 15.3 8.2 58 4.2 SSE 4 7 2 4 - - 0.2
26/02:30pm 17.3 16.2 8.4 56 4.6 SSE 4 13 2 7 - - 0.2
26/02:00pm 17.5 16.4 8.4 55 4.7 SW 4 7 2 4 - - 0.2
26/01:30pm 17.3 15.9 9.0 58 4.3 WSW 6 9 3 5 - - 0.2
26/01:00pm 16.7 15.1 8.7 59 4.1 WNW 7 11 4 6 - - 0.2
26/12:30pm 16.5 14.6 7.4 55 4.5 WNW 7 13 4 7 - - 0.2
26/12:00pm 16.1 14.1 7.1 55 4.5 WNW 7 15 4 8 - - 0.2
26/11:30am 15.4 12.5 6.7 56 4.2 W 11 15 6 8 - - 0.2
26/11:00am 14.5 11.1 6.1 57 4.0 W 13 17 7 9 - - 0.0
26/10:30am 13.4 9.9 5.6 59 3.7 WNW 13 17 7 9 - - 0.0
26/10:00am 12.9 10.0 6.5 65 3.1 W 11 15 6 8 - - 0.0
26/09:30am 11.4 8.3 5.5 67 2.7 W 11 17 6 9 - - 0.0
26/09:00am 10.0 7.3 5.8 75 1.9 WNW 9 15 5 8 - - 0.0
26/08:30am 8.5 6.1 5.3 80 1.4 WNW 7 13 4 7 - - 0.0
26/08:00am 8.2 5.9 5.7 84 1.1 NW 7 11 4 6 - - 0.0
26/07:30am 6.4 4.2 5.4 93 0.4 NW 6 7 3 4 - - 0.0
26/07:00am 4.7 2.9 3.2 90 0.6 NW 2 6 1 3 - - 0.0
26/06:30am 4.8 3.4 3.5 91 0.5 CALM 0 0 0 0 - - 0.0
26/06:00am 5.6 3.2 4.4 92 0.5 NW 6 7 3 4 - - 0.0
26/05:30am 5.4 3.0 4.5 94 0.4 NNW 6 7 3 4 - - 0.0
26/05:00am 4.9 3.6 4.3 96 0.3 CALM 0 7 0 4 - - 0.0
26/04:30am 4.6 3.2 3.7 94 0.4 CALM 0 2 0 1 - - 0.0
26/04:00am 6.0 4.6 5.6 97 0.2 N 2 7 1 4 - - 0.0
26/03:30am 4.3 3.0 4.0 98 0.1 CALM 0 0 0 0 - - 0.0
26/03:00am 5.0 3.8 4.7 98 0.1 CALM 0 0 0 0 - - 0.0
26/02:32am 5.1 3.9 4.8 98 0.1 CALM 0 0 0 0 - - 0.0
26/02:30am 5.2 4.1 4.9 98 0.1 CALM 0 0 0 0 - - 0.0
26/02:12am 4.9 3.7 4.6 98 0.1 CALM 0 0 0 0 - - 0.0
26/02:00am 5.0 3.8 4.7 98 0.1 CALM 0 4 0 2 - - 0.0
26/01:47am 5.9 4.1 5.6 98 0.1 N 4 7 2 4 - - 0.0
26/01:30am 5.1 3.9 4.8 98 0.1 CALM 0 0 0 0 - - 0.0
26/01:00am 5.5 4.4 5.2 98 0.1 CALM 0 0 0 0 - - 0.0
26/12:30am 5.9 4.9 5.6 98 0.1 CALM 0 0 0 0 - - 0.0
26/12:00am 5.6 4.5 5.2 97 0.2 CALM 0 0 0 0 - - 0.0
 
Date/Time
EST
Temp
°C
App
Temp
°C
Dew
Point
Rel
Hum
%
Delta-T
°C
Wind Press
QNH
hPa
Press
MSL
hPa
Rain
since 9 am
mm
Dir
 
Spd
km/h
Gust
km/h
Spd
kts
Gust
kts
25/11:30pm 6.5 5.6 6.1 97 0.2 CALM 0 0 0 0 - - 0.0
25/11:00pm 6.5 5.6 6.1 97 0.2 CALM 0 0 0 0 - - 0.0
25/10:56pm 6.5 5.6 6.1 97 0.2 CALM 0 0 0 0 - - 0.0
25/10:55pm 6.6 5.7 6.2 97 0.2 CALM 0 0 0 0 - - 0.0
25/10:30pm 6.9 6.1 6.3 96 0.3 CALM 0 0 0 0 - - 0.0
25/10:00pm 7.1 6.3 6.4 95 0.3 CALM 0 0 0 0 - - 0.0
25/09:30pm 7.7 7.0 7.0 95 0.3 CALM 0 0 0 0 - - 0.0
25/09:26pm 7.6 6.9 6.9 95 0.3 CALM 0 0 0 0 - - 0.0
25/09:23pm 7.7 7.0 7.1 96 0.3 CALM 0 0 0 0 - - 0.0
25/09:00pm 7.8 7.1 7.1 95 0.3 CALM 0 0 0 0 - - 0.0
25/08:57pm 8.4 7.8 7.6 95 0.4 CALM 0 0 0 0 - - 0.0
25/08:30pm 8.7 8.2 7.9 95 0.4 CALM 0 0 0 0 - - 0.0
25/08:00pm 9.1 8.6 8.0 93 0.5 CALM 0 0 0 0 - - 0.0
25/07:30pm 9.4 9.0 8.3 93 0.5 CALM 0 0 0 0 - - 0.0
25/07:00pm 10.0 9.7 8.6 91 0.7 CALM 0 0 0 0 - - 0.0
25/06:30pm 10.1 9.7 8.2 88 0.9 CALM 0 0 0 0 - - 0.0
25/06:00pm 11.1 10.8 8.8 86 1.1 CALM 0 0 0 0 - - 0.0
25/05:30pm 12.2 12.1 9.6 84 1.3 CALM 0 0 0 0 - - 0.0
25/05:00pm 13.2 13.1 9.6 79 1.8 CALM 0 0 0 0 - - 0.0
25/04:30pm 14.4 14.4 9.8 74 2.4 CALM 0 0 0 0 - - 0.0
25/04:00pm 15.9 14.8 8.4 61 3.8 N 4 7 2 4 - - 0.0
25/03:30pm 17.3 17.2 9.5 60 4.1 CALM 0 0 0 0 - - 0.0
25/03:00pm 16.8 16.3 8.0 56 4.5 CALM 0 0 0 0 - - 0.0
25/02:30pm 17.0 16.5 7.9 55 4.6 CALM 0 0 0 0 - - 0.0
25/02:00pm 16.8 15.2 8.2 57 4.4 NW 6 11 3 6 - - 0.0
25/01:30pm 17.2 15.4 7.8 54 4.8 WNW 7 9 4 5 - - 0.0
25/01:00pm 16.5 15.4 8.5 59 4.1 W 4 7 2 4 - - 0.0
25/12:30pm 16.3 14.6 7.5 56 4.4 WNW 6 9 3 5 - - 0.0
25/12:00pm 15.9 14.7 8.2 60 3.9 NW 4 11 2 6 - - 0.0
25/11:30am 15.5 14.4 8.5 63 3.5 NNW 4 9 2 5 - - 0.0
25/11:00am 14.3 11.8 6.6 60 3.7 NW 9 13 5 7 - - 0.0
25/10:30am 13.5 11.1 7.1 65 3.1 NW 9 13 5 7 - - 0.0
25/10:00am 13.0 10.6 6.8 66 3.0 WNW 9 15 5 8 - - 0.0
25/09:30am 12.3 9.9 7.2 71 2.5 NW 9 13 5 7 - - 0.0
25/09:00am 11.4 9.4 7.1 75 2.1 NNW 7 11 4 6 - - 0.0
25/08:30am 10.0 8.1 6.9 81 1.5 NNW 6 9 3 5 - - 0.0
25/08:00am 8.7 6.9 7.2 90 0.7 NNW 6 9 3 5 - - 0.0
25/07:30am 7.4 6.2 6.3 93 0.5 NW 2 6 1 3 - - 0.0
25/07:00am 7.4 5.2 6.3 93 0.5 NW 7 9 4 5 - - 0.0
25/06:30am 7.3 5.1 6.4 94 0.4 NNW 7 43 4 23 - - 0.0
25/06:00am 6.8 5.9 6.2 96 0.3 CALM 0 0 0 0 - - 0.0
25/05:30am 6.2 4.4 5.5 95 0.3 NNW 4 6 2 3 - - 0.0
25/05:00am 6.3 5.3 5.4 94 0.4 CALM 0 7 0 4 - - 0.0
25/04:30am 7.0 5.4 6.3 95 0.3 NNW 4 6 2 3 - - 0.0
25/04:00am 6.6 4.5 5.9 95 0.3 NW 6 9 3 5 - - 0.0
25/03:30am 6.6 5.7 5.9 95 0.3 CALM 0 0 0 0 - - 0.0
25/03:00am 6.9 6.0 6.2 95 0.3 CALM 0 0 0 0 - - 0.0
25/02:30am 6.2 4.8 5.3 94 0.4 NW 2 6 1 3 - - 0.0
25/02:00am 6.8 5.9 5.9 94 0.4 CALM 0 0 0 0 - - 0.0
25/01:30am 7.2 5.3 6.5 95 0.3 NW 6 7 3 4 - - 0.0
25/01:00am 6.8 5.4 5.7 93 0.5 N 2 6 1 3 - - 0.0
25/12:30am 7.3 6.5 6.4 94 0.4 CALM 0 0 0 0 - - 0.0
25/12:00am 7.8 7.0 6.6 92 0.6 CALM 0 6 0 3 - - 0.0
 
Date/Time
EST
Temp
°C
App
Temp
°C
Dew
Point
Rel
Hum
%
Delta-T
°C
Wind Press
QNH
hPa
Press
MSL
hPa
Rain
since 9 am
mm
Dir
 
Spd
km/h
Gust
km/h
Spd
kts
Gust
kts
24/11:30pm 8.1 6.8 7.5 96 0.3 SE 4 6 2 3 - - 0.0
24/11:00pm 7.7 7.0 7.1 96 0.3 CALM 0 0 0 0 - - 0.0
24/10:30pm 7.5 6.8 6.9 96 0.3 CALM 0 0 0 0 - - 0.0
24/10:00pm 7.3 6.5 6.6 95 0.3 CALM 0 0 0 0 - - 0.0
24/09:30pm 7.7 7.0 7.0 95 0.3 CALM 0 0 0 0 - - 0.0
24/09:00pm 7.3 6.4 6.2 93 0.5 CALM 0 0 0 0 - - 0.0
24/08:30pm 7.8 7.0 6.6 92 0.6 CALM 0 0 0 0 - - 0.0
24/08:00pm 7.8 7.0 6.4 91 0.6 CALM 0 0 0 0 - - 0.0

Other Formats:

Comma delimited format used in spreadsheet applications
http://www.bom.gov.au/fwo/IDN60801/IDN60801.94766.axf

JavaScript Object Notation format (JSON) in row-major order
http://www.bom.gov.au/fwo/IDN60801/IDN60801.94766.json